IGO107 VAPO-VOBL
Flight info
| Callsign | IGO107 |
|---|---|
| Flight time | N/A |
| Altitude | 37000 |
| Route | AVKOR2A AVKOR W128 EPKOS Q9 RIKBU RIKBU7E |
| Aircraft | A21N/M-SDE3FGHIRWY/LB1 |
Departure
| Time | N/A |
|---|---|
| Airport | Pune International Airport (VAPO) |
Arrival
| Time | 2026-05-07 18:37 |
|---|---|
| Airport | Kempegowda International Airport Bengaluru (VOBL) |
| Time | Latitude | Longitude | Altitude | Speed | Heading |
|---|---|---|---|---|---|
| 2026-05-07 17:58 | 16.25941 | 74.94366 | 36814 ft | 451 kts | 128° |
| 2026-05-07 17:58 | 16.21982 | 74.99538 | 36814 ft | 450 kts | 127° |
| 2026-05-07 17:59 | 16.18029 | 75.04698 | 36814 ft | 449 kts | 127° |
| 2026-05-07 17:59 | 16.14116 | 75.09803 | 36814 ft | 448 kts | 127° |
| 2026-05-07 18:00 | 16.10247 | 75.14849 | 36814 ft | 448 kts | 127° |
| 2026-05-07 18:00 | 16.06356 | 75.19924 | 36814 ft | 448 kts | 127° |
| 2026-05-07 18:01 | 16.02469 | 75.24987 | 36814 ft | 448 kts | 127° |
| 2026-05-07 18:01 | 15.98567 | 75.30065 | 36814 ft | 448 kts | 127° |
| 2026-05-07 18:02 | 15.92750 | 75.37629 | 36804 ft | 448 kts | 127° |
| 2026-05-07 18:03 | 15.88872 | 75.42667 | 36795 ft | 448 kts | 127° |
| 2026-05-07 18:03 | 15.84956 | 75.47749 | 36789 ft | 448 kts | 127° |
| 2026-05-07 18:04 | 15.81031 | 75.52839 | 36787 ft | 448 kts | 127° |
| 2026-05-07 18:04 | 15.77119 | 75.57911 | 36785 ft | 448 kts | 127° |
| 2026-05-07 18:05 | 15.73175 | 75.63020 | 36785 ft | 448 kts | 127° |
| 2026-05-07 18:05 | 15.69263 | 75.68083 | 36785 ft | 448 kts | 127° |
| 2026-05-07 18:06 | 15.65355 | 75.73140 | 36785 ft | 448 kts | 127° |
| 2026-05-07 18:06 | 15.61418 | 75.78230 | 36785 ft | 448 kts | 127° |
| 2026-05-07 18:07 | 15.57489 | 75.83305 | 36785 ft | 448 kts | 127° |
| 2026-05-07 18:07 | 15.53583 | 75.88348 | 36785 ft | 448 kts | 127° |
| 2026-05-07 18:08 | 15.49666 | 75.93401 | 36785 ft | 448 kts | 127° |
| 2026-05-07 18:08 | 15.45760 | 75.98438 | 36785 ft | 448 kts | 127° |
| 2026-05-07 18:09 | 15.41836 | 76.03494 | 36785 ft | 448 kts | 127° |
| 2026-05-07 18:09 | 15.37920 | 76.08536 | 36785 ft | 448 kts | 127° |
| 2026-05-07 18:10 | 15.33991 | 76.13591 | 36785 ft | 448 kts | 127° |
| 2026-05-07 18:10 | 15.30064 | 76.18642 | 36785 ft | 448 kts | 127° |
| 2026-05-07 18:11 | 15.26130 | 76.23698 | 36785 ft | 448 kts | 127° |
| 2026-05-07 18:11 | 15.22192 | 76.28742 | 36785 ft | 448 kts | 128° |
| 2026-05-07 18:12 | 15.17951 | 76.33508 | 36785 ft | 450 kts | 134° |
| 2026-05-07 18:12 | 15.13240 | 76.37784 | 36785 ft | 451 kts | 140° |
| 2026-05-07 18:13 | 15.08090 | 76.41531 | 36785 ft | 453 kts | 145° |
| 2026-05-07 18:13 | 15.02781 | 76.45003 | 36785 ft | 453 kts | 146° |
| 2026-05-07 18:14 | 14.97415 | 76.48507 | 36786 ft | 452 kts | 145° |
| 2026-05-07 18:14 | 14.92109 | 76.51976 | 36786 ft | 451 kts | 145° |
| 2026-05-07 18:15 | 14.86829 | 76.55429 | 36785 ft | 450 kts | 145° |
| 2026-05-07 18:15 | 14.81506 | 76.58909 | 36785 ft | 450 kts | 145° |
| 2026-05-07 18:16 | 14.76189 | 76.62383 | 36785 ft | 450 kts | 145° |
| 2026-05-07 18:16 | 14.70878 | 76.65852 | 36786 ft | 450 kts | 146° |
| 2026-05-07 18:17 | 14.65555 | 76.69327 | 36785 ft | 450 kts | 146° |
| 2026-05-07 18:17 | 14.60222 | 76.72807 | 36421 ft | 451 kts | 146° |
| 2026-05-07 18:17 | 14.57584 | 76.74526 | 35889 ft | 448 kts | 146° |
| 2026-05-07 18:18 | 14.55179 | 76.76093 | 35279 ft | 448 kts | 146° |
| 2026-05-07 18:18 | 14.52421 | 76.77891 | 34556 ft | 449 kts | 146° |
| 2026-05-07 18:18 | 14.49745 | 76.79635 | 33842 ft | 449 kts | 146° |
| 2026-05-07 18:18 | 14.47099 | 76.81358 | 33116 ft | 450 kts | 146° |
| 2026-05-07 18:19 | 14.44455 | 76.83081 | 32364 ft | 451 kts | 146° |
| 2026-05-07 18:19 | 14.41770 | 76.84829 | 31580 ft | 453 kts | 146° |
| 2026-05-07 18:19 | 14.39077 | 76.86582 | 30777 ft | 456 kts | 146° |
| 2026-05-07 18:19 | 14.36361 | 76.88349 | 29950 ft | 458 kts | 146° |
| 2026-05-07 18:20 | 14.33674 | 76.90098 | 29115 ft | 460 kts | 146° |
| 2026-05-07 18:20 | 14.30919 | 76.91889 | 28238 ft | 463 kts | 146° |
| 2026-05-07 18:20 | 14.28179 | 76.93670 | 27346 ft | 466 kts | 146° |
| 2026-05-07 18:20 | 14.25416 | 76.95466 | 26424 ft | 468 kts | 146° |
| 2026-05-07 18:21 | 14.22660 | 76.97257 | 25479 ft | 471 kts | 146° |
| 2026-05-07 18:21 | 14.19841 | 76.99090 | 24483 ft | 475 kts | 146° |
| 2026-05-07 18:21 | 14.17047 | 77.00909 | 23466 ft | 478 kts | 146° |
| 2026-05-07 18:21 | 14.14196 | 77.02768 | 22583 ft | 477 kts | 146° |
| 2026-05-07 18:22 | 14.11414 | 77.04579 | 21864 ft | 473 kts | 146° |
| 2026-05-07 18:22 | 14.09529 | 77.05806 | 21380 ft | 469 kts | 146° |
| 2026-05-07 18:22 | 14.05836 | 77.08210 | 20369 ft | 465 kts | 146° |
| 2026-05-07 18:22 | 14.03114 | 77.09981 | 19681 ft | 459 kts | 146° |
| 2026-05-07 18:23 | 14.00386 | 77.11755 | 19013 ft | 454 kts | 146° |
| 2026-05-07 18:23 | 13.97744 | 77.13473 | 18372 ft | 449 kts | 146° |
| 2026-05-07 18:23 | 13.95090 | 77.15197 | 17727 ft | 443 kts | 146° |
| 2026-05-07 18:23 | 13.92453 | 77.16911 | 17084 ft | 439 kts | 146° |
| 2026-05-07 18:24 | 13.89870 | 77.18590 | 16451 ft | 434 kts | 146° |
| 2026-05-07 18:24 | 13.87354 | 77.20225 | 15829 ft | 430 kts | 147° |
| 2026-05-07 18:24 | 13.84794 | 77.21887 | 15194 ft | 426 kts | 147° |
| 2026-05-07 18:24 | 13.82276 | 77.23522 | 14566 ft | 422 kts | 147° |
| 2026-05-07 18:25 | 13.79811 | 77.25122 | 13947 ft | 418 kts | 147° |
| 2026-05-07 18:25 | 13.77330 | 77.26732 | 13677 ft | 414 kts | 147° |
| 2026-05-07 18:25 | 13.74893 | 77.28311 | 13697 ft | 393 kts | 147° |
| 2026-05-07 18:25 | 13.72640 | 77.29771 | 13717 ft | 373 kts | 147° |
| 2026-05-07 18:26 | 13.70480 | 77.31171 | 13737 ft | 354 kts | 146° |
| 2026-05-07 18:26 | 13.68420 | 77.32507 | 13756 ft | 336 kts | 146° |
| 2026-05-07 18:26 | 13.66474 | 77.33768 | 13767 ft | 319 kts | 146° |
| 2026-05-07 18:26 | 13.64622 | 77.34969 | 13737 ft | 303 kts | 146° |
| 2026-05-07 18:27 | 13.62866 | 77.36107 | 13708 ft | 288 kts | 146° |
| 2026-05-07 18:27 | 13.61204 | 77.37184 | 13686 ft | 280 kts | 146° |
| 2026-05-07 18:27 | 13.59540 | 77.38257 | 13637 ft | 280 kts | 148° |
| 2026-05-07 18:27 | 13.57785 | 77.39211 | 13526 ft | 282 kts | 154° |
| 2026-05-07 18:28 | 13.55961 | 77.39982 | 13149 ft | 282 kts | 158° |
| 2026-05-07 18:28 | 13.54095 | 77.40709 | 12787 ft | 281 kts | 158° |
| 2026-05-07 18:28 | 13.52284 | 77.41409 | 12446 ft | 279 kts | 158° |
| 2026-05-07 18:28 | 13.50462 | 77.42118 | 12107 ft | 276 kts | 158° |
| 2026-05-07 18:29 | 13.48648 | 77.42828 | 11771 ft | 274 kts | 158° |
| 2026-05-07 18:29 | 13.46870 | 77.43528 | 11444 ft | 272 kts | 158° |
| 2026-05-07 18:29 | 13.45100 | 77.44224 | 11120 ft | 270 kts | 158° |
| 2026-05-07 18:29 | 13.43332 | 77.44921 | 10796 ft | 269 kts | 158° |
| 2026-05-07 18:30 | 13.41511 | 77.45468 | 10465 ft | 267 kts | 169° |
| 2026-05-07 18:30 | 13.39677 | 77.45644 | 10223 ft | 261 kts | 176° |
| 2026-05-07 18:30 | 13.37848 | 77.45699 | 9941 ft | 257 kts | 178° |
| 2026-05-07 18:30 | 13.36048 | 77.45736 | 9644 ft | 254 kts | 177° |
| 2026-05-07 18:31 | 13.34254 | 77.45780 | 9224 ft | 256 kts | 177° |
| 2026-05-07 18:31 | 13.32461 | 77.45830 | 8864 ft | 255 kts | 178° |
| 2026-05-07 18:31 | 13.30689 | 77.45741 | 8540 ft | 253 kts | 186° |
| 2026-05-07 18:31 | 13.28933 | 77.45446 | 8230 ft | 250 kts | 189° |
| 2026-05-07 18:32 | 13.27224 | 77.45102 | 7931 ft | 247 kts | 189° |
| 2026-05-07 18:32 | 13.25519 | 77.44760 | 7631 ft | 244 kts | 186° |
| 2026-05-07 18:32 | 13.23847 | 77.44884 | 7298 ft | 237 kts | 156° |
| 2026-05-07 18:32 | 13.22537 | 77.45839 | 6996 ft | 229 kts | 128° |
| 2026-05-07 18:33 | 13.21618 | 77.47184 | 6703 ft | 227 kts | 116° |
| 2026-05-07 18:33 | 13.21063 | 77.48690 | 6403 ft | 224 kts | 101° |
| 2026-05-07 18:33 | 13.20863 | 77.50298 | 6105 ft | 222 kts | 91° |
| 2026-05-07 18:33 | 13.20839 | 77.51884 | 5995 ft | 220 kts | 89° |
| 2026-05-07 18:34 | 13.20849 | 77.53496 | 5873 ft | 219 kts | 89° |
| 2026-05-07 18:34 | 13.20849 | 77.55032 | 5666 ft | 209 kts | 90° |
| 2026-05-07 18:34 | 13.20837 | 77.56526 | 5348 ft | 203 kts | 90° |
| 2026-05-07 18:34 | 13.20822 | 77.57960 | 5052 ft | 196 kts | 90° |
| 2026-05-07 18:35 | 13.20806 | 77.59356 | 4772 ft | 189 kts | 90° |
| 2026-05-07 18:35 | 13.20792 | 77.60692 | 4513 ft | 180 kts | 90° |
| 2026-05-07 18:35 | 13.20780 | 77.61939 | 4306 ft | 161 kts | 90° |
| 2026-05-07 18:35 | 13.20769 | 77.63056 | 4087 ft | 153 kts | 91° |
| 2026-05-07 18:36 | 13.20759 | 77.64127 | 3899 ft | 152 kts | 91° |
| 2026-05-07 18:36 | 13.20749 | 77.65224 | 3706 ft | 151 kts | 91° |
| 2026-05-07 18:36 | 13.20739 | 77.66309 | 3484 ft | 151 kts | 91° |
| 2026-05-07 18:36 | 13.20725 | 77.67410 | 3290 ft | 150 kts | 91° |
| 2026-05-07 18:37 | 13.20717 | 77.68471 | 3067 ft | 145 kts | 91° |
| 2026-05-07 18:37 | 13.20707 | 77.69445 | 3009 ft | 115 kts | 90° |
| 2026-05-07 18:37 | 13.20701 | 77.70093 | 3009 ft | 65 kts | 90° |
| 2026-05-07 18:37 | 13.20688 | 77.70405 | 3009 ft | 33 kts | 99° |
| 2026-05-07 18:38 | 13.20613 | 77.70589 | 3009 ft | 23 kts | 119° |
| 2026-05-07 18:38 | 13.20546 | 77.70713 | 3009 ft | 11 kts | 120° |
| 2026-05-07 18:38 | 13.20525 | 77.70791 | 3009 ft | 12 kts | 91° |
| 2026-05-07 18:38 | 13.20524 | 77.70885 | 3009 ft | 13 kts | 90° |
| 2026-05-07 18:39 | 13.20523 | 77.70993 | 3009 ft | 15 kts | 91° |
| 2026-05-07 18:39 | 13.20524 | 77.71104 | 3009 ft | 9 kts | 89° |
| 2026-05-07 18:39 | 13.20503 | 77.71166 | 3009 ft | 9 kts | 147° |
| 2026-05-07 18:39 | 13.20433 | 77.71175 | 3009 ft | 10 kts | 179° |
| 2026-05-07 18:40 | 13.20352 | 77.71176 | 3009 ft | 12 kts | 180° |
| 2026-05-07 18:40 | 13.20279 | 77.71174 | 3009 ft | 9 kts | 192° |
| 2026-05-07 18:40 | 13.20241 | 77.71122 | 3009 ft | 10 kts | 263° |
| 2026-05-07 18:40 | 13.20240 | 77.71048 | 3009 ft | 10 kts | 271° |
| 2026-05-07 18:41 | 13.20240 | 77.70971 | 3009 ft | 11 kts | 270° |
| 2026-05-07 18:41 | 13.20240 | 77.70901 | 3009 ft | 7 kts | 265° |
| 2026-05-07 18:41 | 13.20203 | 77.70876 | 3009 ft | 7 kts | 186° |
| 2026-05-07 18:41 | 13.20172 | 77.70875 | 3009 ft | 0 kts | 181° |
| 2026-05-07 18:42 | 13.20169 | 77.70875 | 3009 ft | 0 kts | 181° |